createdAt,value
2018-07-17T00:01:37.911Z,70.00
2018-07-17T00:06:42.714Z,70.90
2018-07-17T00:11:47.523Z,70.30
2018-07-17T00:16:52.439Z,70.50
2018-07-17T00:21:57.358Z,70.70
2018-07-17T00:27:02.410Z,71.10
2018-07-17T00:32:07.211Z,72.30
2018-07-17T00:37:12.008Z,73.00
2018-07-17T00:42:16.806Z,77.40
2018-07-17T00:47:21.736Z,87.30
2018-07-17T00:52:26.532Z,83.10
2018-07-17T00:57:31.458Z,85.70
2018-07-17T01:02:41.175Z,91.50
2018-07-17T01:12:54.139Z,90.20
2018-07-17T01:17:58.944Z,83.30
2018-07-17T01:23:03.746Z,81.80
2018-07-17T01:28:08.673Z,80.70
2018-07-17T01:33:13.491Z,80.30
2018-07-17T01:38:18.156Z,80.10
2018-07-17T01:43:23.913Z,80.10
2018-07-17T01:48:29.315Z,79.90
2018-07-17T01:53:33.879Z,79.90
2018-07-17T01:58:38.683Z,80.00
2018-07-17T02:03:43.361Z,80.20
2018-07-17T02:08:59.920Z,80.30
2018-07-17T02:14:06.162Z,80.50
2018-07-17T02:19:10.847Z,80.70
2018-07-17T02:24:15.653Z,81.70
2018-07-17T02:29:20.460Z,85.10
2018-07-17T02:34:25.012Z,86.60
2018-07-17T02:39:29.939Z,84.50
2018-07-17T02:44:34.617Z,85.20
2018-07-17T02:49:39.418Z,84.80
2018-07-17T02:54:44.100Z,86.10
2018-07-17T02:59:48.911Z,87.50
2018-07-17T03:04:53.583Z,86.90
2018-07-17T03:09:59.229Z,91.60
2018-07-17T03:15:03.909Z,94.00
2018-07-17T03:20:08.590Z,98.10
2018-07-17T03:25:13.274Z,99.60
2018-07-17T03:30:18.683Z,97.50
2018-07-17T03:35:23.236Z,98.00
2018-07-17T03:40:28.278Z,95.50
2018-07-17T03:45:32.960Z,97.40
2018-07-17T03:50:37.642Z,99.90
2018-07-17T03:55:42.445Z,99.90
2018-07-17T04:00:47.127Z,99.90
2018-07-17T04:05:58.606Z,99.90
2018-07-17T04:11:05.738Z,99.90
2018-07-17T04:16:10.413Z,99.90
2018-07-17T04:21:15.102Z,99.90
2018-07-17T04:26:19.777Z,99.90
2018-07-17T04:31:24.578Z,99.90
2018-07-17T04:41:34.305Z,99.90
2018-07-17T04:46:55.295Z,99.90
2018-07-17T04:52:03.831Z,99.90
2018-07-17T04:57:08.870Z,99.90
2018-07-17T05:02:17.757Z,99.90
2018-07-17T05:07:23.036Z,99.90
2018-07-17T05:12:27.733Z,99.90
2018-07-17T05:17:32.881Z,99.90
2018-07-17T05:22:38.280Z,99.90
2018-07-17T05:27:50.055Z,99.90
2018-07-17T05:32:54.725Z,99.90
2018-07-17T05:37:59.646Z,99.90
2018-07-17T05:43:04.686Z,99.90
2018-07-17T05:48:09.380Z,99.90
2018-07-17T05:53:14.060Z,99.90
2018-07-17T05:58:21.012Z,99.90
2018-07-17T06:03:25.717Z,99.90
2018-07-17T06:08:30.376Z,99.60
2018-07-17T06:18:39.142Z,97.40
2018-07-17T06:23:43.822Z,97.80
2018-07-17T06:28:48.746Z,96.40
2018-07-17T06:33:53.307Z,96.10
2018-07-17T06:38:58.315Z,94.90
2018-07-17T06:44:03.514Z,94.40
2018-07-17T06:49:08.205Z,95.10
2018-07-17T06:54:13.844Z,95.40
2018-07-17T06:59:18.641Z,93.50
2018-07-17T07:04:23.201Z,93.10
2018-07-17T07:09:28.003Z,94.20
2018-07-17T07:14:32.579Z,94.40
2018-07-17T07:19:37.250Z,95.10
2018-07-17T07:24:41.933Z,95.00
2018-07-17T07:29:46.732Z,95.80
2018-07-17T07:34:51.532Z,95.10
2018-07-17T07:39:56.217Z,94.60
2018-07-17T07:45:01.019Z,94.20
2018-07-17T07:50:05.943Z,96.20
2018-07-17T07:55:10.750Z,96.50
2018-07-17T08:00:15.542Z,97.90
2018-07-17T08:05:20.585Z,96.70
2018-07-17T08:10:25.390Z,96.40
2018-07-17T08:15:30.073Z,97.20
2018-07-17T08:20:34.755Z,94.90
2018-07-17T08:25:39.557Z,93.10
2018-07-17T08:30:44.480Z,92.70
2018-07-17T08:35:49.444Z,91.20
2018-07-17T08:40:54.080Z,91.10
2018-07-17T08:45:58.885Z,92.70
2018-07-17T08:51:03.575Z,90.70
2018-07-17T08:56:08.369Z,88.00
2018-07-17T09:01:13.175Z,85.50
2018-07-17T09:06:17.849Z,85.00
2018-07-17T09:11:22.662Z,82.90
2018-07-17T09:16:27.937Z,85.60
2018-07-17T09:21:32.652Z,84.60
2018-07-17T09:26:37.418Z,79.20
2018-07-17T09:31:42.341Z,74.70
2018-07-17T09:36:47.875Z,79.40
2018-07-17T09:41:52.680Z,77.40
2018-07-17T09:46:57.233Z,76.90
2018-07-17T09:52:02.183Z,74.10
2018-07-17T09:57:06.973Z,70.80
2018-07-17T10:02:18.594Z,69.90
2018-07-17T10:07:23.997Z,68.00
2018-07-17T10:12:28.810Z,67.80
2018-07-17T10:17:33.599Z,66.30
2018-07-17T10:22:38.766Z,69.40
2018-07-17T10:27:43.574Z,64.80
2018-07-17T10:32:48.365Z,63.00
2018-07-17T10:37:53.050Z,62.50
2018-07-17T10:42:57.858Z,61.60
2018-07-17T10:48:02.686Z,59.50
2018-07-17T10:53:07.462Z,59.10
2018-07-17T10:58:12.377Z,59.40
2018-07-17T11:13:27.410Z,59.50
2018-07-17T11:18:32.433Z,58.30
2018-07-17T11:23:37.350Z,58.70
2018-07-17T11:28:42.296Z,57.30
2018-07-17T11:33:47.430Z,55.60
2018-07-17T11:38:52.236Z,54.80
2018-07-17T11:43:57.156Z,53.40
2018-07-17T11:49:02.082Z,54.40
2018-07-17T11:59:11.297Z,53.50
2018-07-17T12:04:16.971Z,53.40
2018-07-17T12:09:22.126Z,53.80
2018-07-17T12:14:27.291Z,53.50
2018-07-17T12:19:32.331Z,54.80
2018-07-17T12:24:37.307Z,53.80
2018-07-17T12:29:42.296Z,53.00
2018-07-17T12:34:47.388Z,54.10
2018-07-17T12:39:52.503Z,56.20
2018-07-17T12:45:00.556Z,53.90
2018-07-17T12:50:09.061Z,55.00
2018-07-17T12:55:14.949Z,58.00
2018-07-17T13:00:19.987Z,56.00
2018-07-17T13:05:24.849Z,54.50
2018-07-17T13:10:29.949Z,52.20
2018-07-17T13:15:34.754Z,55.30
2018-07-17T13:20:39.581Z,53.80
2018-07-17T13:25:45.556Z,51.30
2018-07-17T13:30:50.621Z,51.20
2018-07-17T13:35:55.523Z,50.60
2018-07-17T13:41:00.447Z,49.60
2018-07-17T13:51:09.935Z,50.70
2018-07-17T13:56:14.982Z,49.00
2018-07-17T14:01:20.135Z,50.10
2018-07-17T14:06:25.050Z,50.20
2018-07-17T14:11:29.745Z,50.40
2018-07-17T14:16:34.792Z,50.50
2018-07-17T14:21:39.843Z,53.00
2018-07-17T14:26:44.997Z,51.20
2018-07-17T14:31:50.987Z,51.60
2018-07-17T14:36:55.926Z,54.20
2018-07-17T14:42:00.713Z,56.60
2018-07-17T14:52:11.185Z,55.30
2018-07-17T14:57:17.331Z,53.70
2018-07-17T15:02:22.470Z,56.10
2018-07-17T15:07:29.279Z,57.50
2018-07-17T15:12:34.319Z,59.30
2018-07-17T15:17:45.362Z,58.30
2018-07-17T15:22:52.205Z,58.60
2018-07-17T15:28:00.078Z,59.00
2018-07-17T15:33:05.341Z,59.80
2018-07-17T15:38:11.769Z,60.00
2018-07-17T15:43:18.373Z,59.10
2018-07-17T15:48:24.131Z,59.30
2018-07-17T15:58:35.180Z,61.50
2018-07-17T16:03:40.227Z,61.70
2018-07-17T16:08:44.911Z,61.00
2018-07-17T16:13:49.886Z,60.70
2018-07-17T16:23:58.705Z,61.80
2018-07-17T16:29:03.771Z,61.40
2018-07-17T16:34:08.788Z,63.00
2018-07-17T16:39:13.350Z,62.40
2018-07-17T16:44:20.919Z,62.00
2018-07-17T16:49:25.846Z,60.20
2018-07-17T16:54:33.065Z,59.80
2018-07-17T16:59:39.283Z,60.00
2018-07-17T17:04:44.464Z,61.30
2018-07-17T17:09:49.605Z,64.30
2018-07-17T17:14:54.536Z,65.20
2018-07-17T17:19:59.604Z,66.20
2018-07-17T17:25:05.389Z,67.00
2018-07-17T17:30:10.973Z,65.90
2018-07-17T17:35:18.415Z,66.50
2018-07-17T17:40:23.339Z,67.00
2018-07-17T17:45:28.274Z,66.90
2018-07-17T17:50:34.380Z,67.90
2018-07-17T17:55:39.672Z,68.40
2018-07-17T18:00:46.411Z,71.30
2018-07-17T18:05:52.263Z,72.00
2018-07-17T18:10:57.071Z,73.40
2018-07-17T18:16:04.751Z,74.90
2018-07-17T18:26:14.598Z,75.90
2018-07-17T18:31:19.407Z,76.80
2018-07-17T18:36:24.441Z,77.20
2018-07-17T18:41:29.188Z,77.10
2018-07-17T18:46:33.919Z,76.20
2018-07-17T18:51:42.328Z,78.30
2018-07-17T18:56:47.250Z,79.50
2018-07-17T19:01:52.770Z,78.60
2018-07-17T19:06:57.569Z,79.50
2018-07-17T19:12:02.491Z,78.60
2018-07-17T19:17:07.299Z,80.00
2018-07-17T19:27:16.294Z,81.40
2018-07-17T19:32:21.475Z,81.40
2018-07-17T19:37:26.526Z,81.50
2018-07-17T19:42:32.025Z,82.30
2018-07-17T19:47:36.837Z,82.50
2018-07-17T19:52:41.656Z,82.40
2018-07-17T19:57:46.790Z,82.20
2018-07-17T20:02:51.593Z,83.40
2018-07-17T20:07:56.272Z,82.90
2018-07-17T20:13:01.196Z,81.40
2018-07-17T20:18:06.357Z,81.20
2018-07-17T20:23:11.403Z,81.00
2018-07-17T20:28:17.400Z,83.30
2018-07-17T20:33:22.222Z,81.30
2018-07-17T20:38:26.889Z,82.60
2018-07-17T20:43:32.652Z,82.40
2018-07-17T20:48:38.414Z,83.80
2018-07-17T20:53:43.098Z,83.40
2018-07-17T20:58:47.783Z,83.70
2018-07-17T21:03:52.693Z,83.90
2018-07-17T21:08:58.454Z,84.00
2018-07-17T21:14:08.303Z,84.70
2018-07-17T21:19:14.181Z,86.10
2018-07-17T21:24:18.982Z,86.70
2018-07-17T21:29:23.665Z,90.30
2018-07-17T21:34:42.398Z,90.80
2018-07-17T21:39:47.549Z,90.60
2018-07-17T21:55:00.757Z,91.70
2018-07-17T22:00:07.962Z,92.70
2018-07-17T22:05:12.758Z,93.30
2018-07-17T22:15:23.487Z,93.80
2018-07-17T22:20:29.572Z,94.20
2018-07-17T22:25:34.629Z,94.00
2018-07-17T22:30:39.550Z,93.70
2018-07-17T22:35:44.453Z,94.70
2018-07-17T22:40:49.256Z,94.40
2018-07-17T22:45:54.183Z,94.90
2018-07-17T22:50:59.229Z,95.80
2018-07-17T22:56:04.023Z,96.00
2018-07-17T23:01:09.180Z,95.90
2018-07-17T23:06:14.238Z,96.20
2018-07-17T23:11:19.987Z,96.40
2018-07-17T23:16:24.675Z,97.10
2018-07-17T23:26:43.038Z,97.50
2018-07-17T23:31:47.713Z,97.00
2018-07-17T23:36:55.843Z,97.40
2018-07-17T23:42:03.316Z,97.40
2018-07-17T23:47:08.119Z,97.50
2018-07-17T23:52:12.803Z,97.50
2018-07-17T23:57:17.846Z,98.30
